This is the latest recevied weather packets stored in our database for station/object HA5CD-6. If no packets are shown the sender has not sent any weather packets the latest 10 day(s).
| Time | Temp. | Humidity | Pressure | Rain* | Wind** | Luminosity | Snow |
|---|---|---|---|---|---|---|---|
| 1777673493 | 12.78° C | 43% | 1002 hPa | - | - | - | - |
| 1777672893 | 12.78° C | 42% | 1002 hPa | - | - | - | - |
| 1777672293 | 12.78° C | 42% | 1002 hPa | - | - | - | - |
| 1777671693 | 12.78° C | 42% | 1002 hPa | - | - | - | - |
| 1777670492 | 12.78° C | 42% | 1002 hPa | - | - | - | - |
| 1777669892 | 13.33° C | 41% | 1001 hPa | - | - | - | - |
| 1777669292 | 13.33° C | 41% | 1001 hPa | - | - | - | - |
| 1777668692 | 13.33° C | 41% | 1001 hPa | - | - | - | - |
| 1777668092 | 12.78° C | 42% | 1001 hPa | - | - | - | - |
| 1777666891 | 13.33° C | 41% | 1001 hPa | - | - | - | - |
| 1777666291 | 13.33° C | 41% | 1001 hPa | - | - | - | - |
| 1777665691 | 13.33° C | 41% | 1001 hPa | - | - | - | - |
| 1777665091 | 13.89° C | 41% | 1001 hPa | - | - | - | - |
| 1777664491 | 13.89° C | 41% | 1001 hPa | - | - | - | - |
| 1777663290 | 13.89° C | 40% | 1001 hPa | - | - | - | - |
| 1777662090 | 14.44° C | 38% | 1001 hPa | - | - | - | - |
| 1777660890 | 14.44° C | 39% | 1001 hPa | - | - | - | - |
| 1777660290 | 15° C | 39% | 1001 hPa | - | - | - | - |
| 1777659690 | 15° C | 38% | 1001 hPa | - | - | - | - |
| 1777658489 | 15.56° C | 38% | 1001 hPa | - | - | - | - |
| 1777656683 | 17.78° C | 34% | 1001 hPa | - | - | - | - |
| 1777656083 | 18.89° C | 30% | 1000 hPa | - | - | - | - |
| 1777655483 | 19.44° C | 30% | 1000 hPa | - | - | - | - |
| 1777654883 | 21.11° C | 27% | 1000 hPa | - | - | - | - |
| 1777654283 | 18.89° C | 30% | 1001 hPa | - | - | - | - |
* Rain since midnight (hover to see other rain measurements)
** Current wind speed in m/s (hover to see current wind gust speed)